createdAt,value
2019-04-29T00:02:23.761Z,100940.12
2019-04-29T00:04:57.030Z,100939.34
2019-04-29T00:07:31.400Z,100940.53
2019-04-29T00:10:07.239Z,100935.88
2019-04-29T00:12:42.846Z,100941.97
2019-04-29T00:15:38.023Z,100940.61
2019-04-29T00:18:16.687Z,100940.58
2019-04-29T00:20:51.252Z,100939.69
2019-04-29T00:23:24.412Z,100934.02
2019-04-29T00:25:57.649Z,100937.48
2019-04-29T00:28:30.997Z,100937.05
2019-04-29T00:31:04.272Z,100931.83
2019-04-29T00:33:37.552Z,100940.68
2019-04-29T00:36:10.832Z,100932.78
2019-04-29T00:39:05.941Z,100934.02
2019-04-29T00:42:07.885Z,100931.83
2019-04-29T00:44:41.133Z,100931.47
2019-04-29T00:47:14.529Z,100928.03
2019-04-29T00:49:47.822Z,100932.78
2019-04-29T00:52:21.084Z,100933.63
2019-04-29T00:55:00.450Z,100925.19
2019-04-29T00:57:33.675Z,100919.14
2019-04-29T01:00:08.335Z,100923.07
2019-04-29T01:02:42.163Z,100924.39
2019-04-29T01:05:15.482Z,100926.96
2019-04-29T01:07:48.660Z,100921.20
2019-04-29T01:10:21.922Z,100928.22
2019-04-29T01:12:55.148Z,100927.45
2019-04-29T01:15:29.934Z,100920.76
2019-04-29T01:18:04.616Z,100913.66
2019-04-29T01:20:37.851Z,100916.44
2019-04-29T01:23:11.133Z,100905.83
2019-04-29T01:25:45.939Z,100908.00
2019-04-29T01:28:30.544Z,100911.87
2019-04-29T01:31:16.729Z,100912.78
2019-04-29T01:33:52.309Z,100910.59
2019-04-29T01:36:42.296Z,100899.72
2019-04-29T01:39:17.258Z,100901.02
2019-04-29T01:42:11.611Z,100893.03
2019-04-29T01:44:44.904Z,100891.64
2019-04-29T01:47:18.149Z,100886.38
2019-04-29T01:49:51.326Z,100882.95
2019-04-29T01:52:24.590Z,100885.16
2019-04-29T01:54:57.749Z,100883.84
2019-04-29T01:57:30.883Z,100884.28
2019-04-29T02:00:04.118Z,100879.42
2019-04-29T02:02:37.456Z,100877.63
2019-04-29T02:05:10.811Z,100874.20
2019-04-29T02:07:43.975Z,100868.41
2019-04-29T02:10:31.148Z,100869.73
2019-04-29T02:13:04.426Z,100878.50
2019-04-29T02:15:37.668Z,100879.42
2019-04-29T02:18:11.906Z,100878.08
2019-04-29T02:20:45.197Z,100872.84
2019-04-29T02:23:23.810Z,100881.65
2019-04-29T02:25:57.102Z,100875.99
2019-04-29T02:28:30.406Z,100870.59
2019-04-29T02:31:21.222Z,100871.50
2019-04-29T02:33:57.617Z,100865.84
2019-04-29T02:36:32.620Z,100868.09
2019-04-29T02:39:30.565Z,100866.81
2019-04-29T02:42:28.684Z,100864.08
2019-04-29T02:45:06.237Z,100860.98
2019-04-29T02:47:39.563Z,100862.06
2019-04-29T02:50:14.089Z,100864.14
2019-04-29T02:52:47.310Z,100869.50
2019-04-29T02:55:42.555Z,100835.53
2019-04-29T02:58:21.636Z,100861.16
2019-04-29T03:01:13.655Z,100856.33
2019-04-29T03:04:04.656Z,100843.26
2019-04-29T03:06:38.018Z,100845.41
2019-04-29T03:09:11.192Z,100837.45
2019-04-29T03:11:44.519Z,100832.17
2019-04-29T03:14:17.669Z,100816.29
2019-04-29T03:16:51.071Z,100820.80
2019-04-29T03:19:29.453Z,100813.47
2019-04-29T03:22:04.644Z,100826.30
2019-04-29T03:24:37.913Z,100829.77
2019-04-29T03:27:12.487Z,100824.38
2019-04-29T03:29:46.457Z,100832.17
2019-04-29T03:32:19.748Z,100826.05
2019-04-29T03:34:54.000Z,100833.48
2019-04-29T03:37:27.281Z,100836.91
2019-04-29T03:40:00.562Z,100831.57
2019-04-29T03:42:33.743Z,100831.50
2019-04-29T03:45:07.782Z,100838.92
2019-04-29T03:47:42.077Z,100829.42
2019-04-29T03:50:15.432Z,100831.12
2019-04-29T03:52:48.598Z,100830.71
2019-04-29T03:55:38.117Z,100819.71
2019-04-29T03:57:56.876Z,100822.27
2019-04-29T04:00:30.117Z,100825.84
2019-04-29T04:03:28.390Z,100828.92
2019-04-29T04:06:23.608Z,100825.85
2019-04-29T04:09:15.604Z,100827.25
2019-04-29T04:11:48.917Z,100830.73
2019-04-29T04:14:22.166Z,100832.19
2019-04-29T04:17:14.560Z,100837.05
2019-04-29T04:19:48.465Z,100829.08
2019-04-29T04:22:21.733Z,100826.61
2019-04-29T04:24:54.903Z,100831.34
2019-04-29T04:27:28.276Z,100834.77
2019-04-29T04:30:01.547Z,100844.50
2019-04-29T04:32:34.950Z,100829.47
2019-04-29T04:35:08.340Z,100825.07
2019-04-29T04:37:41.712Z,100839.16
2019-04-29T04:40:18.324Z,100837.77
2019-04-29T04:42:51.608Z,100829.55
2019-04-29T04:45:24.851Z,100829.50
2019-04-29T04:47:58.148Z,100832.12
2019-04-29T04:50:33.675Z,100832.97
2019-04-29T04:53:07.999Z,100835.14
2019-04-29T04:55:42.872Z,100840.86
2019-04-29T04:58:16.184Z,100834.67
2019-04-29T05:00:51.513Z,100838.30
2019-04-29T05:03:24.831Z,100827.25
2019-04-29T05:06:00.266Z,100821.05
2019-04-29T05:08:35.386Z,100818.72
2019-04-29T05:11:08.785Z,100812.20
2019-04-29T05:13:43.580Z,100812.97
2019-04-29T05:16:17.219Z,100809.98
2019-04-29T05:18:51.572Z,100808.17
2019-04-29T05:21:24.793Z,100803.01
2019-04-29T05:23:58.117Z,100798.57
2019-04-29T05:26:31.567Z,100801.69
2019-04-29T05:29:04.881Z,100806.42
2019-04-29T05:31:38.203Z,100808.97
2019-04-29T05:34:12.411Z,100805.02
2019-04-29T05:36:53.925Z,100811.09
2019-04-29T05:39:30.740Z,100814.57
2019-04-29T05:42:07.662Z,100803.41
2019-04-29T05:44:50.315Z,100798.44
2019-04-29T05:47:42.335Z,100807.64
2019-04-29T05:50:26.396Z,100819.42
2019-04-29T05:53:11.387Z,100821.73
2019-04-29T05:55:43.390Z,100824.98
2019-04-29T05:58:16.683Z,100823.96
2019-04-29T06:01:04.115Z,100823.65
2019-04-29T06:03:38.430Z,100828.53
2019-04-29T06:06:12.501Z,100819.70
2019-04-29T06:08:46.192Z,100826.58
2019-04-29T06:11:19.410Z,100819.07
2019-04-29T06:13:52.747Z,100830.59
2019-04-29T06:16:25.986Z,100806.80
2019-04-29T06:19:00.322Z,100828.46
2019-04-29T06:21:34.281Z,100824.11
2019-04-29T06:24:07.759Z,100823.09
2019-04-29T06:26:43.590Z,100835.38
2019-04-29T06:29:16.594Z,100846.80
2019-04-29T06:31:49.865Z,100854.70
2019-04-29T06:34:23.218Z,100857.78
2019-04-29T06:36:56.505Z,100855.16
2019-04-29T06:39:29.940Z,100845.07
2019-04-29T06:42:03.252Z,100842.55
2019-04-29T06:44:36.754Z,100846.32
2019-04-29T06:47:09.969Z,100843.79
2019-04-29T06:49:43.266Z,100847.70
2019-04-29T06:52:18.501Z,100854.33
2019-04-29T06:54:51.704Z,100856.17
2019-04-29T06:57:25.314Z,100852.23
2019-04-29T06:59:58.542Z,100850.50
2019-04-29T07:02:31.839Z,100843.40
2019-04-29T07:05:05.376Z,100830.13
2019-04-29T07:07:38.747Z,100829.66
2019-04-29T07:10:12.204Z,100819.40
2019-04-29T07:12:47.370Z,100818.02
2019-04-29T07:15:20.336Z,100816.06
2019-04-29T07:17:53.621Z,100817.27
2019-04-29T07:20:27.016Z,100810.13
2019-04-29T07:23:00.763Z,100798.38
2019-04-29T07:25:35.086Z,100811.52
2019-04-29T07:28:08.261Z,100812.18
2019-04-29T07:31:00.671Z,100812.14
2019-04-29T07:33:22.060Z,100811.72
2019-04-29T07:35:51.482Z,100819.20
2019-04-29T07:38:24.762Z,100826.30
2019-04-29T07:40:58.140Z,100822.37
2019-04-29T07:43:32.434Z,100827.44
2019-04-29T07:46:30.382Z,100828.97
2019-04-29T07:49:05.695Z,100835.18
2019-04-29T07:51:39.432Z,100839.77
2019-04-29T07:54:15.966Z,100835.48
2019-04-29T07:56:48.555Z,100836.30
2019-04-29T07:59:23.347Z,100848.92
2019-04-29T08:01:59.927Z,100840.13
2019-04-29T08:04:45.393Z,100840.44
2019-04-29T08:07:30.563Z,100843.53
2019-04-29T08:10:15.491Z,100839.50
2019-04-29T08:12:40.881Z,100844.31
2019-04-29T08:15:15.204Z,100839.94
2019-04-29T08:17:51.352Z,100836.41
2019-04-29T08:20:23.705Z,100839.55
2019-04-29T08:22:58.395Z,100842.03
2019-04-29T08:25:31.927Z,100843.20
2019-04-29T08:28:06.349Z,100846.27
2019-04-29T08:30:41.761Z,100849.74
2019-04-29T08:33:14.534Z,100842.54
2019-04-29T08:35:47.778Z,100846.63
2019-04-29T08:38:21.035Z,100850.85
2019-04-29T08:40:54.513Z,100847.17
2019-04-29T08:43:52.403Z,100841.66
2019-04-29T08:46:31.705Z,100847.30
2019-04-29T08:49:05.965Z,100843.91
2019-04-29T08:51:39.984Z,100837.13
2019-04-29T08:54:16.084Z,100839.23
2019-04-29T08:57:02.360Z,100828.09
2019-04-29T08:59:24.633Z,100832.61
2019-04-29T09:01:59.008Z,100831.95
2019-04-29T09:04:33.173Z,100828.18
2019-04-29T09:07:12.855Z,100832.83
2019-04-29T09:09:41.982Z,100826.72
2019-04-29T09:12:18.966Z,100825.44
2019-04-29T09:14:50.066Z,100818.08
2019-04-29T09:17:23.328Z,100817.14
2019-04-29T09:19:56.514Z,100824.47
2019-04-29T09:22:31.516Z,100819.71
2019-04-29T09:25:26.178Z,100824.64
2019-04-29T09:27:58.102Z,100819.63
2019-04-29T09:30:31.335Z,100813.41
2019-04-29T09:33:08.610Z,100807.97
2019-04-29T09:35:40.594Z,100801.63
2019-04-29T09:38:14.131Z,100800.92
2019-04-29T09:40:54.684Z,100798.27
2019-04-29T09:43:39.538Z,100798.40
2019-04-29T09:46:18.523Z,100797.70
2019-04-29T09:48:51.664Z,100797.14
2019-04-29T09:51:27.982Z,100798.71
2019-04-29T09:53:59.874Z,100792.95
2019-04-29T09:56:34.759Z,100790.61
2019-04-29T09:59:26.759Z,100783.86
2019-04-29T10:02:18.908Z,100783.52
2019-04-29T10:05:04.550Z,100774.08
2019-04-29T10:07:38.313Z,100767.41
2019-04-29T10:10:11.707Z,100767.06
2019-04-29T10:12:44.969Z,100762.78
2019-04-29T10:15:23.031Z,100759.54
2019-04-29T10:18:03.980Z,100758.27
2019-04-29T10:20:45.582Z,100755.66
2019-04-29T10:23:19.018Z,100750.53
2019-04-29T10:25:52.329Z,100737.73
2019-04-29T10:28:25.711Z,100737.28
2019-04-29T10:31:01.611Z,100733.19
2019-04-29T10:33:35.195Z,100734.88
2019-04-29T10:36:09.265Z,100740.39
2019-04-29T10:38:44.897Z,100735.89
2019-04-29T10:41:40.229Z,100729.48
2019-04-29T10:44:28.741Z,100736.26
2019-04-29T10:47:23.085Z,100725.18
2019-04-29T10:49:59.406Z,100731.78
2019-04-29T10:52:34.605Z,100727.56
2019-04-29T10:55:08.829Z,100722.80
2019-04-29T10:57:44.812Z,100720.47
2019-04-29T11:00:41.519Z,100721.62
2019-04-29T11:03:14.827Z,100714.89
2019-04-29T11:06:00.294Z,100715.97
2019-04-29T11:08:45.317Z,100717.81
2019-04-29T11:11:23.212Z,100713.94
2019-04-29T11:13:53.571Z,100711.75
2019-04-29T11:16:45.311Z,100719.92
2019-04-29T11:19:05.633Z,100721.56
2019-04-29T11:21:39.439Z,100713.59
2019-04-29T11:24:23.598Z,100706.80
2019-04-29T11:27:12.107Z,100709.23
2019-04-29T11:29:45.489Z,100709.52
2019-04-29T11:32:29.288Z,100709.23
2019-04-29T11:35:20.240Z,100702.22
2019-04-29T11:37:55.442Z,100713.26
2019-04-29T11:40:42.515Z,100712.35
2019-04-29T11:43:03.794Z,100707.55
2019-04-29T11:45:38.668Z,100695.10
2019-04-29T11:48:12.415Z,100699.58
2019-04-29T11:51:16.820Z,100697.47
2019-04-29T11:53:50.602Z,100704.53
2019-04-29T11:56:24.938Z,100695.28
2019-04-29T11:59:04.946Z,100697.08
2019-04-29T12:01:53.546Z,100688.28
2019-04-29T12:04:34.711Z,100690.02
2019-04-29T12:07:10.568Z,100686.01
2019-04-29T12:09:52.175Z,100686.09
2019-04-29T12:12:32.338Z,100679.88
2019-04-29T12:15:25.558Z,100675.80
2019-04-29T12:18:14.041Z,100669.28
2019-04-29T12:20:57.057Z,100676.81
2019-04-29T12:23:30.355Z,100677.79
2019-04-29T12:26:05.055Z,100672.81
2019-04-29T12:28:42.888Z,100673.38
2019-04-29T12:31:25.786Z,100668.91
2019-04-29T12:34:27.016Z,100669.37
2019-04-29T12:37:02.166Z,100668.42
2019-04-29T12:40:00.692Z,100660.59
2019-04-29T12:42:55.088Z,100653.44
2019-04-29T12:45:33.003Z,100651.25
2019-04-29T12:48:06.661Z,100650.48
2019-04-29T12:50:40.084Z,100651.99
2019-04-29T12:53:14.025Z,100647.31
2019-04-29T12:55:52.970Z,100641.30
2019-04-29T12:58:25.608Z,100637.48
2019-04-29T13:01:05.975Z,100642.86
2019-04-29T13:03:54.085Z,100634.25
2019-04-29T13:06:39.274Z,100630.81
2019-04-29T13:09:17.906Z,100642.28
2019-04-29T13:11:57.954Z,100638.73
2019-04-29T13:14:28.746Z,100632.48
2019-04-29T13:17:14.839Z,100632.38
2019-04-29T13:20:17.953Z,100626.49
2019-04-29T13:22:51.912Z,100631.16
2019-04-29T13:25:26.889Z,100634.52
2019-04-29T13:28:03.875Z,100632.23
2019-04-29T13:30:35.602Z,100636.05
2019-04-29T13:33:16.366Z,100635.52
2019-04-29T13:35:48.453Z,100634.02
2019-04-29T13:38:18.686Z,100632.78
2019-04-29T13:41:11.430Z,100627.23
2019-04-29T13:43:27.658Z,100629.42
2019-04-29T13:46:11.223Z,100628.74
2019-04-29T13:49:13.685Z,100615.12
2019-04-29T13:51:47.387Z,100621.66
2019-04-29T13:54:20.577Z,100610.65
2019-04-29T13:56:56.703Z,100610.77
2019-04-29T13:59:49.042Z,100611.80
2019-04-29T14:02:31.381Z,100615.70
2019-04-29T14:05:02.151Z,100599.22
2019-04-29T14:07:38.882Z,100605.78
2019-04-29T14:10:14.979Z,100609.16
2019-04-29T14:12:48.837Z,100605.36
2019-04-29T14:15:21.964Z,100599.78
2019-04-29T14:17:55.386Z,100594.83
2019-04-29T14:20:28.667Z,100597.69
2019-04-29T14:23:01.901Z,100599.48
2019-04-29T14:25:35.199Z,100602.55
2019-04-29T14:28:08.513Z,100596.95
2019-04-29T14:30:43.725Z,100591.50
2019-04-29T14:33:24.211Z,100595.24
2019-04-29T14:36:02.810Z,100600.23
2019-04-29T14:38:40.573Z,100599.70
2019-04-29T14:41:14.375Z,100603.77
2019-04-29T14:44:04.219Z,100595.46
2019-04-29T14:46:56.576Z,100600.15
2019-04-29T14:49:35.432Z,100592.20
2019-04-29T14:52:13.152Z,100589.47
2019-04-29T14:54:45.242Z,100593.48
2019-04-29T14:57:19.472Z,100587.28
2019-04-29T14:59:53.290Z,100586.09
2019-04-29T15:02:27.784Z,100588.11
2019-04-29T15:05:07.357Z,100579.77
2019-04-29T15:07:42.270Z,100584.19
2019-04-29T15:10:15.979Z,100582.23
2019-04-29T15:13:19.800Z,100579.28
2019-04-29T15:16:04.269Z,100589.53
2019-04-29T15:19:02.719Z,100585.45
2019-04-29T15:21:44.993Z,100585.36
2019-04-29T15:24:18.312Z,100586.36
2019-04-29T15:26:52.000Z,100584.74
2019-04-29T15:29:28.429Z,100579.41
2019-04-29T15:32:01.852Z,100581.67
2019-04-29T15:34:36.343Z,100582.35
2019-04-29T15:37:09.789Z,100583.88
2019-04-29T15:39:46.089Z,100580.54
2019-04-29T15:42:18.088Z,100579.97
2019-04-29T15:44:55.795Z,100584.19
2019-04-29T15:47:31.190Z,100588.66
2019-04-29T15:50:17.389Z,100578.44
2019-04-29T15:52:39.563Z,100586.47
2019-04-29T15:55:13.538Z,100583.88
2019-04-29T15:57:50.342Z,100581.69
2019-04-29T16:00:23.399Z,100580.42
2019-04-29T16:02:57.890Z,100572.70
2019-04-29T16:06:04.608Z,100569.26
2019-04-29T16:08:29.383Z,100579.87
2019-04-29T16:11:29.354Z,100576.92
2019-04-29T16:16:41.198Z,100579.20
2019-04-29T16:19:15.240Z,100572.52
2019-04-29T16:21:48.657Z,100575.88
2019-04-29T16:24:27.081Z,100575.48
2019-04-29T16:27:01.366Z,100575.50
2019-04-29T16:29:33.249Z,100567.12
2019-04-29T16:32:11.695Z,100576.94
2019-04-29T16:34:51.094Z,100577.98
2019-04-29T16:37:31.821Z,100582.20
2019-04-29T16:40:04.546Z,100582.20
2019-04-29T16:43:07.563Z,100582.20
2019-04-29T16:46:03.052Z,100586.94
2019-04-29T16:48:43.065Z,100583.09
2019-04-29T16:51:19.406Z,100592.23
2019-04-29T16:53:52.859Z,100562.36
2019-04-29T16:56:27.345Z,100584.02
2019-04-29T16:59:08.897Z,100583.80
2019-04-29T17:01:36.437Z,100586.86
2019-04-29T17:04:14.032Z,100592.69
2019-04-29T17:07:11.329Z,100589.25
2019-04-29T17:09:48.199Z,100597.53
2019-04-29T17:12:21.684Z,100603.80
2019-04-29T17:15:03.983Z,100603.48
2019-04-29T17:17:30.229Z,100604.88
2019-04-29T17:20:03.702Z,100607.04
2019-04-29T17:22:43.226Z,100612.16
2019-04-29T17:25:14.151Z,100618.17
2019-04-29T17:27:56.282Z,100616.14
2019-04-29T17:30:48.908Z,100617.84
2019-04-29T17:33:49.478Z,100618.19
2019-04-29T17:35:15.562Z,100574.17
2019-04-29T17:36:23.746Z,100634.02
2019-04-29T17:38:57.361Z,100634.71
2019-04-29T17:41:30.828Z,100643.75
2019-04-29T17:44:18.727Z,100644.86
2019-04-29T17:47:11.597Z,100640.21
2019-04-29T17:50:06.659Z,100644.94
2019-04-29T17:52:40.164Z,100648.36
2019-04-29T17:55:47.580Z,100653.59
2019-04-29T17:58:51.680Z,100663.04
2019-04-29T18:01:42.980Z,100666.98
2019-04-29T18:04:42.645Z,100668.69
2019-04-29T18:07:25.056Z,100673.88
2019-04-29T18:10:29.475Z,100680.13
2019-04-29T18:13:00.759Z,100683.33
2019-04-29T18:15:47.474Z,100687.56
2019-04-29T18:18:17.526Z,100693.89
2019-04-29T18:21:18.617Z,100686.13
2019-04-29T18:24:15.234Z,100695.97
2019-04-29T18:29:26.399Z,100706.61
2019-04-29T18:32:00.566Z,100701.88
2019-04-29T18:34:37.383Z,100710.31
2019-04-29T18:37:11.595Z,100715.47
2019-04-29T18:39:44.938Z,100719.98
2019-04-29T18:42:18.639Z,100715.77
2019-04-29T18:44:59.773Z,100728.08
2019-04-29T18:47:34.818Z,100724.09
2019-04-29T18:50:04.926Z,100727.81
2019-04-29T18:52:37.938Z,100719.82
2019-04-29T18:55:11.713Z,100727.59
2019-04-29T18:57:44.955Z,100733.66
2019-04-29T19:00:19.976Z,100742.52
2019-04-29T19:02:58.484Z,100745.02
2019-04-29T19:05:36.095Z,100748.30
2019-04-29T19:08:13.990Z,100744.63
2019-04-29T19:10:49.869Z,100752.16
2019-04-29T19:13:19.648Z,100747.66
2019-04-29T19:15:58.798Z,100754.36
2019-04-29T19:18:30.190Z,100756.73
2019-04-29T19:21:03.431Z,100759.13
2019-04-29T19:23:38.289Z,100767.45
2019-04-29T19:26:12.071Z,100769.03
2019-04-29T19:28:47.018Z,100766.43
2019-04-29T19:31:21.838Z,100769.81
2019-04-29T19:33:57.238Z,100774.08
2019-04-29T19:36:37.125Z,100771.58
2019-04-29T19:39:16.834Z,100764.33
2019-04-29T19:41:52.344Z,100768.31
2019-04-29T19:44:33.229Z,100765.38
2019-04-29T19:47:02.803Z,100757.84
2019-04-29T19:49:40.290Z,100761.16
2019-04-29T19:52:11.349Z,100766.97
2019-04-29T19:54:50.445Z,100768.87
2019-04-29T19:57:25.514Z,100769.86
2019-04-29T20:00:01.160Z,100773.97
2019-04-29T20:02:35.938Z,100775.53
2019-04-29T20:05:30.645Z,100772.64
2019-04-29T20:07:59.270Z,100776.41
2019-04-29T20:10:44.413Z,100772.45
2019-04-29T20:13:09.044Z,100779.94
2019-04-29T20:15:53.117Z,100775.84
2019-04-29T20:19:00.975Z,100776.95
2019-04-29T20:21:36.211Z,100772.81
2019-04-29T20:24:15.510Z,100771.48
2019-04-29T20:26:46.940Z,100777.53
2019-04-29T20:29:20.065Z,100779.54
2019-04-29T20:31:56.287Z,100779.66
2019-04-29T20:34:28.798Z,100777.70
2019-04-29T20:37:02.320Z,100774.95
2019-04-29T20:39:36.126Z,100774.05
2019-04-29T20:42:11.333Z,100776.95
2019-04-29T20:44:49.343Z,100777.15
2019-04-29T20:47:33.149Z,100780.01
2019-04-29T20:50:01.024Z,100773.85
2019-04-29T20:53:01.872Z,100789.48
2019-04-29T20:55:36.765Z,100787.62
2019-04-29T20:58:09.256Z,100786.30
2019-04-29T21:00:42.663Z,100816.29
2019-04-29T21:03:27.336Z,100824.00
2019-04-29T21:05:54.943Z,100830.66
2019-04-29T21:08:28.042Z,100831.17
2019-04-29T21:11:05.773Z,100834.70
2019-04-29T21:14:03.323Z,100843.63
2019-04-29T21:16:39.942Z,100853.48
2019-04-29T21:19:13.207Z,100839.42
2019-04-29T21:21:47.526Z,100830.56
2019-04-29T21:24:21.012Z,100850.42
2019-04-29T21:26:57.427Z,100857.08
2019-04-29T21:29:30.455Z,100850.96
2019-04-29T21:32:05.681Z,100851.53
2019-04-29T21:34:58.039Z,100851.22
2019-04-29T21:37:48.105Z,100861.34
2019-04-29T21:40:35.345Z,100858.84
2019-04-29T21:43:19.098Z,100850.22
2019-04-29T21:45:52.403Z,100841.53
2019-04-29T21:48:33.620Z,100853.73
2019-04-29T21:51:00.459Z,100859.34
2019-04-29T21:53:36.581Z,100855.05
2019-04-29T21:56:09.489Z,100854.80
2019-04-29T21:58:42.934Z,100854.86
2019-04-29T22:01:16.668Z,100847.06
2019-04-29T22:03:51.437Z,100856.47
2019-04-29T22:06:28.702Z,100862.36
2019-04-29T22:09:01.367Z,100855.91
2019-04-29T22:11:43.027Z,100860.94
2019-04-29T22:14:14.160Z,100864.47
2019-04-29T22:16:47.594Z,100865.44
2019-04-29T22:19:26.040Z,100834.56
2019-04-29T22:22:00.197Z,100856.41
2019-04-29T22:24:30.174Z,100848.83
2019-04-29T22:27:05.213Z,100856.95
2019-04-29T22:29:39.363Z,100865.95
2019-04-29T22:32:14.680Z,100868.59
2019-04-29T22:34:49.532Z,100867.08
2019-04-29T22:37:22.740Z,100861.89
2019-04-29T22:39:58.633Z,100855.04
2019-04-29T22:43:05.161Z,100854.70
2019-04-29T22:45:35.585Z,100849.91
2019-04-29T22:48:16.345Z,100846.75
2019-04-29T22:50:45.472Z,100846.90
2019-04-29T22:53:19.556Z,100849.83
2019-04-29T22:55:53.734Z,100840.73
2019-04-29T22:58:27.024Z,100840.44
2019-04-29T23:01:02.469Z,100837.91
2019-04-29T23:03:37.415Z,100838.91
2019-04-29T23:06:10.744Z,100841.55
2019-04-29T23:08:44.972Z,100843.34
2019-04-29T23:11:18.444Z,100839.47
2019-04-29T23:13:52.871Z,100843.08
2019-04-29T23:16:26.222Z,100840.17
2019-04-29T23:18:59.543Z,100838.88
2019-04-29T23:21:51.103Z,100838.13
2019-04-29T23:24:46.648Z,100832.28
2019-04-29T23:27:19.967Z,100834.63
2019-04-29T23:29:53.371Z,100830.42
2019-04-29T23:32:26.704Z,100831.95
2019-04-29T23:35:01.737Z,100828.11
2019-04-29T23:37:35.863Z,100826.29
2019-04-29T23:40:10.134Z,100826.38
2019-04-29T23:42:47.945Z,100824.84
2019-04-29T23:45:21.196Z,100823.52
2019-04-29T23:47:55.556Z,100817.01
2019-04-29T23:50:28.842Z,100811.83
2019-04-29T23:53:01.993Z,100811.55
2019-04-29T23:55:35.746Z,100820.34
2019-04-29T23:58:37.304Z,100813.47
